createdAt,value
2019-02-08T00:00:23.392Z,7.67
2019-02-08T00:02:52.450Z,6.67
2019-02-08T00:05:21.629Z,7.87
2019-02-08T00:07:50.608Z,8.60
2019-02-08T00:10:19.692Z,7.00
2019-02-08T00:12:48.713Z,7.00
2019-02-08T00:15:18.415Z,8.43
2019-02-08T00:17:47.418Z,7.93
2019-02-08T00:20:16.518Z,7.37
2019-02-08T00:22:45.757Z,6.27
2019-02-08T00:25:14.923Z,5.70
2019-02-08T00:27:44.272Z,6.80
2019-02-08T00:30:15.220Z,7.20
2019-02-08T00:32:44.186Z,6.10
2019-02-08T00:35:13.410Z,6.53
2019-02-08T00:37:42.399Z,6.77
2019-02-08T00:40:12.379Z,6.70
2019-02-08T00:42:41.463Z,6.57
2019-02-08T00:45:11.368Z,6.63
2019-02-08T00:47:43.129Z,6.43
2019-02-08T00:50:13.711Z,5.97
2019-02-08T00:52:42.695Z,6.43
2019-02-08T00:55:11.773Z,6.80
2019-02-08T00:57:40.843Z,6.70
2019-02-08T01:00:10.659Z,6.20
2019-02-08T01:02:40.039Z,7.03
2019-02-08T01:05:09.842Z,5.77
2019-02-08T01:07:38.867Z,9.00
2019-02-08T01:10:09.541Z,6.53
2019-02-08T01:12:38.547Z,5.67
2019-02-08T01:15:07.955Z,5.97
2019-02-08T01:17:37.200Z,6.47
2019-02-08T01:20:07.204Z,6.23
2019-02-08T01:22:36.168Z,6.37
2019-02-08T01:25:06.338Z,6.20
2019-02-08T01:27:35.372Z,6.83
2019-02-08T01:30:05.847Z,6.27
2019-02-08T01:32:34.854Z,5.83
2019-02-08T01:35:05.018Z,6.10
2019-02-08T01:37:34.064Z,6.77
2019-02-08T01:40:03.240Z,6.70
2019-02-08T01:42:32.228Z,7.13
2019-02-08T01:45:01.215Z,6.37
2019-02-08T01:47:30.206Z,6.47
2019-02-08T01:49:59.186Z,5.83
2019-02-08T01:52:28.157Z,7.07
2019-02-08T01:54:57.151Z,6.97
2019-02-08T01:57:26.146Z,5.90
2019-02-08T01:59:55.135Z,6.47
2019-02-08T02:02:24.128Z,6.33
2019-02-08T02:04:53.203Z,5.47
2019-02-08T02:07:22.293Z,6.50
2019-02-08T02:09:51.329Z,6.53
2019-02-08T02:12:20.330Z,6.67
2019-02-08T02:14:49.304Z,6.60
2019-02-08T02:17:18.301Z,7.33
2019-02-08T02:19:47.425Z,6.20
2019-02-08T02:22:16.412Z,5.83
2019-02-08T02:24:45.394Z,6.30
2019-02-08T02:27:14.376Z,6.80
2019-02-08T02:29:43.358Z,6.07
2019-02-08T02:32:12.350Z,6.30
2019-02-08T02:34:42.832Z,6.83
2019-02-08T02:37:14.888Z,6.27
2019-02-08T02:39:43.869Z,6.87
2019-02-08T02:42:12.897Z,6.20
2019-02-08T02:44:41.925Z,6.40
2019-02-08T02:47:10.925Z,5.67
2019-02-08T02:49:39.916Z,5.93
2019-02-08T02:52:09.302Z,5.40
2019-02-08T02:54:38.351Z,5.77
2019-02-08T02:57:07.370Z,5.63
2019-02-08T02:59:36.336Z,5.23
2019-02-08T03:02:05.404Z,5.27
2019-02-08T03:04:34.367Z,6.27
2019-02-08T03:07:03.342Z,5.67
2019-02-08T03:09:32.320Z,6.20
2019-02-08T03:12:01.405Z,6.50
2019-02-08T03:14:30.399Z,6.83
2019-02-08T03:16:59.450Z,5.53
2019-02-08T03:19:28.422Z,6.40
2019-02-08T03:21:57.428Z,6.37
2019-02-08T03:24:26.401Z,6.70
2019-02-08T03:26:56.230Z,6.67
2019-02-08T03:29:25.196Z,7.03
2019-02-08T03:31:54.184Z,6.93
2019-02-08T03:34:23.242Z,7.97
2019-02-08T03:36:52.251Z,6.90
2019-02-08T03:39:21.226Z,7.33
2019-02-08T03:41:50.248Z,7.07
2019-02-08T03:44:19.241Z,7.63
2019-02-08T03:46:48.233Z,8.17
2019-02-08T03:49:17.197Z,8.17
2019-02-08T03:51:46.195Z,8.07
2019-02-08T03:54:21.033Z,7.43
2019-02-08T03:56:45.963Z,7.37
2019-02-08T03:59:14.926Z,6.93
2019-02-08T04:01:44.005Z,7.07
2019-02-08T04:04:16.571Z,8.37
2019-02-08T04:06:45.578Z,7.37
2019-02-08T04:09:14.547Z,7.17
2019-02-08T04:11:43.622Z,7.50
2019-02-08T04:14:12.646Z,7.40
2019-02-08T04:16:41.636Z,7.03
2019-02-08T04:19:10.636Z,7.90
2019-02-08T04:21:39.677Z,6.97
2019-02-08T04:24:08.672Z,6.80
2019-02-08T04:26:37.661Z,7.40
2019-02-08T04:29:06.631Z,7.20
2019-02-08T04:31:35.619Z,6.67
2019-02-08T04:34:04.703Z,7.23
2019-02-08T04:36:33.815Z,6.77
2019-02-08T04:39:04.594Z,6.57
2019-02-08T04:41:33.582Z,7.80
2019-02-08T04:44:02.638Z,7.33
2019-02-08T04:46:31.637Z,7.23
2019-02-08T04:49:00.622Z,6.90
2019-02-08T04:51:29.708Z,7.03
2019-02-08T04:56:30.478Z,6.70
2019-02-08T04:58:59.469Z,6.90
2019-02-08T05:01:28.523Z,7.47
2019-02-08T05:03:57.602Z,6.07
2019-02-08T05:06:26.569Z,6.10
2019-02-08T05:08:55.563Z,6.23
2019-02-08T05:11:24.544Z,6.70
2019-02-08T05:13:53.528Z,6.10
2019-02-08T05:16:22.571Z,6.37
2019-02-08T05:18:51.555Z,6.00
2019-02-08T05:21:20.611Z,6.10
2019-02-08T05:23:49.603Z,5.80
2019-02-08T05:26:18.578Z,5.43
2019-02-08T05:28:47.564Z,5.70
2019-02-08T05:31:16.581Z,5.40
2019-02-08T05:33:45.681Z,4.93
2019-02-08T05:36:15.322Z,5.50
2019-02-08T05:38:44.430Z,5.63
2019-02-08T05:41:13.397Z,5.43
2019-02-08T05:43:42.431Z,4.93
2019-02-08T05:46:11.402Z,5.60
2019-02-08T05:48:40.465Z,5.57
2019-02-08T05:51:09.566Z,5.87
2019-02-08T05:53:38.568Z,5.03
2019-02-08T05:56:07.530Z,6.07
2019-02-08T05:58:36.530Z,5.37
2019-02-08T06:01:05.664Z,6.23
2019-02-08T06:03:34.656Z,5.53
2019-02-08T06:06:03.837Z,5.40
2019-02-08T06:08:32.832Z,5.27
2019-02-08T06:11:01.826Z,6.40
2019-02-08T06:13:30.814Z,6.30
2019-02-08T06:15:59.782Z,5.40
2019-02-08T06:18:28.784Z,5.43
2019-02-08T06:20:57.816Z,5.50
2019-02-08T06:23:26.817Z,5.83
2019-02-08T06:25:55.788Z,5.63
2019-02-08T06:28:24.783Z,5.67
2019-02-08T06:30:53.794Z,5.87
2019-02-08T06:33:22.791Z,5.87
2019-02-08T06:35:51.783Z,5.60
2019-02-08T06:38:20.793Z,5.57
2019-02-08T06:40:49.804Z,5.70
2019-02-08T06:43:19.011Z,5.60
2019-02-08T06:45:47.995Z,5.83
2019-02-08T06:48:16.972Z,4.83
2019-02-08T06:50:46.000Z,5.77
2019-02-08T06:53:15.095Z,5.57
2019-02-08T06:55:44.091Z,5.13
2019-02-08T06:58:31.543Z,5.17
2019-02-08T07:01:19.701Z,4.57
2019-02-08T07:04:23.361Z,5.67
2019-02-08T07:07:26.535Z,4.37
2019-02-08T07:10:05.274Z,4.17
2019-02-08T07:12:41.619Z,4.80
2019-02-08T07:15:30.767Z,4.30
2019-02-08T07:18:27.692Z,4.73
2019-02-08T07:21:08.211Z,3.93
2019-02-08T07:24:05.414Z,3.97
2019-02-08T07:26:53.549Z,4.60
2019-02-08T07:29:40.383Z,4.20
2019-02-08T07:32:27.399Z,3.90
2019-02-08T07:35:18.550Z,4.30
2019-02-08T07:38:02.204Z,4.17
2019-02-08T07:41:10.270Z,3.50
2019-02-08T07:43:48.538Z,3.80
2019-02-08T07:46:32.973Z,3.83
2019-02-08T07:49:24.088Z,3.83
2019-02-08T07:52:10.699Z,3.23
2019-02-08T07:55:10.817Z,3.80
2019-02-08T07:57:57.350Z,3.97
2019-02-08T08:00:53.603Z,4.13
2019-02-08T08:03:32.562Z,3.87
2019-02-08T08:06:30.626Z,3.53
2019-02-08T08:09:08.914Z,4.07
2019-02-08T08:11:57.143Z,3.80
2019-02-08T08:14:45.249Z,3.90
2019-02-08T08:17:34.822Z,3.57
2019-02-08T08:20:22.174Z,3.83
2019-02-08T08:23:07.577Z,3.70
2019-02-08T08:25:56.422Z,3.93
2019-02-08T08:28:37.246Z,4.93
2019-02-08T08:31:23.975Z,3.80
2019-02-08T08:33:59.076Z,3.87
2019-02-08T08:36:47.277Z,4.77
2019-02-08T08:39:25.056Z,3.50
2019-02-08T08:42:15.978Z,4.33
2019-02-08T08:45:10.123Z,3.83
2019-02-08T08:47:44.835Z,4.20
2019-02-08T08:50:44.861Z,4.13
2019-02-08T08:53:22.922Z,4.57
2019-02-08T08:56:17.936Z,4.10
2019-02-08T08:58:53.872Z,4.77
2019-02-08T09:01:42.206Z,3.67
2019-02-08T09:04:30.318Z,4.30
2019-02-08T09:07:16.872Z,4.37
2019-02-08T09:10:03.676Z,4.40
2019-02-08T09:12:43.896Z,3.67
2019-02-08T09:15:19.540Z,4.37
2019-02-08T09:18:04.743Z,4.10
2019-02-08T09:20:40.982Z,4.67
2019-02-08T09:23:14.600Z,4.23
2019-02-08T09:25:58.818Z,6.03
2019-02-08T09:28:58.855Z,4.30
2019-02-08T09:32:04.988Z,4.90
2019-02-08T09:34:41.381Z,3.73
2019-02-08T09:37:28.287Z,4.87
2019-02-08T09:40:28.368Z,4.10
2019-02-08T09:43:25.800Z,3.67
2019-02-08T09:46:18.505Z,5.33
2019-02-08T09:49:06.659Z,4.10
2019-02-08T09:51:50.587Z,3.80
2019-02-08T09:54:44.497Z,6.20
2019-02-08T09:57:20.894Z,4.27
2019-02-08T09:59:58.580Z,3.43
2019-02-08T10:02:45.983Z,4.37
2019-02-08T10:05:31.980Z,5.87
2019-02-08T10:08:16.883Z,3.30
2019-02-08T10:11:16.987Z,4.30
2019-02-08T10:14:10.945Z,3.90
2019-02-08T10:16:59.050Z,3.80
2019-02-08T10:20:02.301Z,3.40
2019-02-08T10:23:01.187Z,3.23
2019-02-08T10:25:49.319Z,3.70
2019-02-08T10:28:38.081Z,3.67
2019-02-08T10:31:24.599Z,4.30
2019-02-08T10:34:09.179Z,4.80
2019-02-08T10:36:54.618Z,3.30
2019-02-08T10:39:30.235Z,3.60
2019-02-08T10:42:16.855Z,3.40
2019-02-08T10:45:03.608Z,3.23
2019-02-08T10:47:50.556Z,3.90
2019-02-08T10:50:37.306Z,3.10
2019-02-08T10:53:34.283Z,2.90
2019-02-08T10:56:20.782Z,3.50
2019-02-08T10:59:17.932Z,3.10
2019-02-08T11:02:04.420Z,3.37
2019-02-08T11:04:51.255Z,3.83
2019-02-08T11:07:42.216Z,3.00
2019-02-08T11:10:29.069Z,3.53
2019-02-08T11:13:15.594Z,3.23
2019-02-08T11:16:06.519Z,2.60
2019-02-08T11:18:54.649Z,3.20
2019-02-08T11:21:23.637Z,2.80
2019-02-08T11:23:52.631Z,3.50
2019-02-08T11:26:24.122Z,2.93
2019-02-08T11:28:52.342Z,3.23
2019-02-08T11:31:21.315Z,3.23
2019-02-08T11:33:50.311Z,4.30
2019-02-08T11:36:19.275Z,3.23
2019-02-08T11:38:48.315Z,3.77
2019-02-08T11:41:17.422Z,3.50
2019-02-08T11:43:46.391Z,3.10
2019-02-08T11:46:15.392Z,3.17
2019-02-08T11:48:44.425Z,3.40
2019-02-08T11:51:14.808Z,2.97
2019-02-08T11:53:43.907Z,2.60
2019-02-08T11:56:12.896Z,3.40
2019-02-08T11:58:41.870Z,2.40
2019-02-08T12:01:13.014Z,2.93
2019-02-08T12:03:42.007Z,2.27
2019-02-08T12:06:10.977Z,2.50
2019-02-08T12:08:39.964Z,3.23
2019-02-08T12:11:09.006Z,3.13
2019-02-08T12:13:38.127Z,4.00
2019-02-08T12:16:07.187Z,9.07
2019-02-08T12:18:36.195Z,8.33
2019-02-08T12:21:05.262Z,10.90
2019-02-08T12:23:34.281Z,13.27
2019-02-08T12:26:03.303Z,7.93
2019-02-08T12:28:32.291Z,5.80
2019-02-08T12:31:01.310Z,6.03
2019-02-08T12:33:30.287Z,5.40
2019-02-08T12:35:59.510Z,5.73
2019-02-08T12:38:28.568Z,5.03
2019-02-08T12:40:57.598Z,5.27
2019-02-08T12:43:26.568Z,3.90
2019-02-08T12:45:55.603Z,4.13
2019-02-08T12:48:24.667Z,3.87
2019-02-08T12:50:54.938Z,7.13
2019-02-08T12:53:23.895Z,3.67
2019-02-08T12:55:52.865Z,3.97
2019-02-08T12:58:21.965Z,3.47
2019-02-08T13:00:50.940Z,3.13
2019-02-08T13:03:19.905Z,3.00
2019-02-08T13:05:48.904Z,4.17
2019-02-08T13:08:17.886Z,2.80
2019-02-08T13:10:46.879Z,2.70
2019-02-08T13:13:15.852Z,3.77
2019-02-08T13:15:44.864Z,2.97
2019-02-08T13:18:13.977Z,2.90
2019-02-08T13:20:42.989Z,2.80
2019-02-08T13:23:11.975Z,3.67
2019-02-08T13:25:41.132Z,3.30
2019-02-08T13:28:10.091Z,3.17
2019-02-08T13:30:39.171Z,3.00
2019-02-08T13:33:08.132Z,2.70
2019-02-08T13:35:37.139Z,3.17
2019-02-08T13:38:06.111Z,2.50
2019-02-08T13:40:35.105Z,2.97
2019-02-08T13:43:04.071Z,2.70
2019-02-08T13:45:33.065Z,2.77
2019-02-08T13:48:02.055Z,3.13
2019-02-08T13:50:31.055Z,2.53
2019-02-08T13:53:00.047Z,3.13
2019-02-08T13:55:29.083Z,2.90
2019-02-08T13:57:58.051Z,4.37
2019-02-08T14:00:28.265Z,4.50
2019-02-08T14:02:57.400Z,4.07
2019-02-08T14:05:26.472Z,3.27
2019-02-08T14:07:55.472Z,7.37
2019-02-08T14:10:24.506Z,7.93
2019-02-08T14:12:53.535Z,4.10
2019-02-08T14:15:22.925Z,5.97
2019-02-08T14:17:51.901Z,3.50
2019-02-08T14:20:21.565Z,3.10
2019-02-08T14:22:50.572Z,3.53
2019-02-08T14:25:19.717Z,3.20
2019-02-08T14:27:50.458Z,3.17
2019-02-08T14:30:21.016Z,2.97
2019-02-08T14:32:50.026Z,3.00
2019-02-08T14:35:19.032Z,2.90
2019-02-08T14:37:48.364Z,2.57
2019-02-08T14:40:18.235Z,3.03
2019-02-08T14:42:47.322Z,3.07
2019-02-08T14:45:16.487Z,2.70
2019-02-08T14:47:45.472Z,3.60
2019-02-08T14:50:15.827Z,4.10
2019-02-08T14:52:44.929Z,4.27
2019-02-08T14:55:14.131Z,5.73
2019-02-08T14:57:43.200Z,5.07
2019-02-08T15:00:13.559Z,4.73
2019-02-08T15:02:42.552Z,4.50
2019-02-08T15:05:11.783Z,5.60
2019-02-08T15:07:40.770Z,6.10
2019-02-08T15:10:11.695Z,6.27
2019-02-08T15:12:40.702Z,13.37
2019-02-08T15:15:09.755Z,7.23
2019-02-08T15:17:38.839Z,5.00
2019-02-08T15:20:09.753Z,8.23
2019-02-08T15:22:38.726Z,3.43
2019-02-08T15:25:07.767Z,8.07
2019-02-08T15:27:36.803Z,3.43
2019-02-08T15:30:06.473Z,3.70
2019-02-08T15:32:35.553Z,3.27
2019-02-08T15:35:05.111Z,3.13
2019-02-08T15:37:34.133Z,3.40
2019-02-08T15:40:03.240Z,3.33
2019-02-08T15:42:32.241Z,3.00
2019-02-08T15:45:01.287Z,3.97
2019-02-08T15:47:30.387Z,3.00
2019-02-08T15:49:59.449Z,3.50
2019-02-08T15:52:28.495Z,3.83
2019-02-08T15:54:57.550Z,2.60
2019-02-08T15:57:31.932Z,3.37
2019-02-08T15:59:57.309Z,3.27
2019-02-08T16:02:26.280Z,3.03
2019-02-08T16:04:55.280Z,3.33
2019-02-08T16:07:24.315Z,3.63
2019-02-08T16:09:53.368Z,2.93
2019-02-08T16:12:22.355Z,3.47
2019-02-08T16:14:51.347Z,2.83
2019-02-08T16:17:20.589Z,3.40
2019-02-08T16:19:49.665Z,2.87
2019-02-08T16:22:18.724Z,2.77
2019-02-08T16:24:47.826Z,2.73
2019-02-08T16:27:17.338Z,3.43
2019-02-08T16:29:48.055Z,2.80
2019-02-08T16:32:17.051Z,2.60
2019-02-08T16:34:46.211Z,3.63
2019-02-08T16:37:15.203Z,3.03
2019-02-08T16:39:44.274Z,2.77
2019-02-08T16:42:13.246Z,3.60
2019-02-08T16:44:42.323Z,3.17
2019-02-08T16:47:11.382Z,3.23
2019-02-08T16:49:40.380Z,3.10
2019-02-08T16:52:09.347Z,2.90
2019-02-08T16:54:38.408Z,4.00
2019-02-08T16:57:07.411Z,2.80
2019-02-08T16:59:36.411Z,4.00
2019-02-08T17:02:05.690Z,7.87
2019-02-08T17:04:34.698Z,13.07
2019-02-08T17:07:03.922Z,7.73
2019-02-08T17:09:32.954Z,7.57
2019-02-08T17:12:01.934Z,8.87
2019-02-08T17:14:30.971Z,4.53
2019-02-08T17:17:05.205Z,5.23
2019-02-08T17:19:34.219Z,5.60
2019-02-08T17:22:03.239Z,14.80
2019-02-08T17:24:32.264Z,5.73
2019-02-08T17:27:01.377Z,4.33
2019-02-08T17:29:30.500Z,5.10
2019-02-08T17:31:59.537Z,4.77
2019-02-08T17:34:28.600Z,4.90
2019-02-08T17:36:57.628Z,4.33
2019-02-08T17:39:26.639Z,4.20
2019-02-08T17:41:55.719Z,3.50
2019-02-08T17:44:24.738Z,4.40
2019-02-08T17:46:53.852Z,4.07
2019-02-08T17:49:22.878Z,4.50
2019-02-08T17:51:51.908Z,3.80
2019-02-08T17:54:25.586Z,3.97
2019-02-08T17:56:51.564Z,3.23
2019-02-08T17:59:20.555Z,3.33
2019-02-08T18:01:49.548Z,3.30
2019-02-08T18:04:18.549Z,4.03
2019-02-08T18:06:47.615Z,3.30
2019-02-08T18:09:16.604Z,3.57
2019-02-08T18:11:45.608Z,3.17
2019-02-08T18:14:14.574Z,4.00
2019-02-08T18:16:43.562Z,5.23
2019-02-08T18:19:12.549Z,3.60
2019-02-08T18:21:41.542Z,5.37
2019-02-08T18:24:14.270Z,3.40
2019-02-08T18:26:43.284Z,3.80
2019-02-08T18:29:12.269Z,3.30
2019-02-08T18:31:41.263Z,4.63
2019-02-08T18:34:10.781Z,4.83
2019-02-08T18:36:39.762Z,4.87
2019-02-08T18:39:08.939Z,5.07
2019-02-08T18:41:38.075Z,5.17
2019-02-08T18:44:07.068Z,4.50
2019-02-08T18:46:36.058Z,4.60
2019-02-08T18:49:05.083Z,3.70
2019-02-08T18:51:34.118Z,3.80
2019-02-08T18:54:03.110Z,4.10
2019-02-08T18:56:32.141Z,4.70
2019-02-08T18:59:01.121Z,3.50
2019-02-08T19:01:30.167Z,3.23
2019-02-08T19:03:59.152Z,4.97
2019-02-08T19:06:28.220Z,4.23
2019-02-08T19:08:57.180Z,3.87
2019-02-08T19:11:26.220Z,3.90
2019-02-08T19:13:55.279Z,3.37
2019-02-08T19:16:24.309Z,4.27
2019-02-08T19:18:53.328Z,3.90
2019-02-08T19:21:22.343Z,4.90
2019-02-08T19:23:51.417Z,3.20
2019-02-08T19:26:20.498Z,4.00
2019-02-08T19:28:49.536Z,3.87
2019-02-08T19:31:18.550Z,3.83
2019-02-08T19:33:47.560Z,4.67
2019-02-08T19:36:16.558Z,6.23
2019-02-08T19:38:45.610Z,5.03
2019-02-08T19:41:14.645Z,3.33
2019-02-08T19:43:43.714Z,6.43
2019-02-08T19:46:12.731Z,6.53
2019-02-08T19:48:41.791Z,4.30
2019-02-08T19:51:10.850Z,7.20
2019-02-08T19:53:39.817Z,5.87
2019-02-08T19:56:08.809Z,3.53
2019-02-08T19:58:37.823Z,3.67
2019-02-08T20:01:06.783Z,3.93
2019-02-08T20:03:35.876Z,3.93
2019-02-08T20:06:04.963Z,3.83
2019-02-08T20:08:33.976Z,3.50
2019-02-08T20:11:03.063Z,3.87
2019-02-08T20:13:32.238Z,4.20
2019-02-08T20:16:01.341Z,4.67
2019-02-08T20:18:30.425Z,3.90
2019-02-08T20:20:59.506Z,4.47
2019-02-08T20:23:28.529Z,4.57
2019-02-08T20:25:57.529Z,4.63
2019-02-08T20:28:26.609Z,3.93
2019-02-08T20:30:55.591Z,4.00
2019-02-08T20:33:24.610Z,4.07
2019-02-08T20:35:53.698Z,3.60
2019-02-08T20:38:22.714Z,4.00
2019-02-08T20:40:52.099Z,3.73
2019-02-08T20:43:21.098Z,4.37
2019-02-08T20:45:50.166Z,4.87
2019-02-08T20:48:20.281Z,3.60
2019-02-08T20:50:49.371Z,3.87
2019-02-08T20:53:18.458Z,4.07
2019-02-08T20:55:47.455Z,4.43
2019-02-08T20:58:16.531Z,4.20
2019-02-08T21:00:46.991Z,4.60
2019-02-08T21:03:16.441Z,5.47
2019-02-08T21:05:46.347Z,4.17
2019-02-08T21:08:16.238Z,4.67
2019-02-08T21:10:45.250Z,4.07
2019-02-08T21:13:14.376Z,3.80
2019-02-08T21:15:44.460Z,4.27
2019-02-08T21:18:13.507Z,4.33
2019-02-08T21:20:43.523Z,3.47
2019-02-08T21:23:14.545Z,4.57
2019-02-08T21:25:50.367Z,4.43
2019-02-08T21:28:14.795Z,5.53
2019-02-08T21:30:43.971Z,9.07
2019-02-08T21:33:13.303Z,7.80
2019-02-08T21:35:42.623Z,4.30
2019-02-08T21:38:13.482Z,4.83
2019-02-08T21:40:42.582Z,5.67
2019-02-08T21:43:11.650Z,7.07
2019-02-08T21:45:41.488Z,4.83
2019-02-08T21:48:10.991Z,3.80
2019-02-08T21:50:40.282Z,5.70
2019-02-08T21:53:09.494Z,4.80
2019-02-08T21:55:39.087Z,3.50
2019-02-08T21:58:08.454Z,5.83
2019-02-08T22:00:39.763Z,6.93
2019-02-08T22:03:10.579Z,7.53
2019-02-08T22:05:45.114Z,4.93
2019-02-08T22:08:17.579Z,4.20
2019-02-08T22:10:48.928Z,5.60
2019-02-08T22:13:18.146Z,5.97
2019-02-08T22:15:47.330Z,4.37
2019-02-08T22:18:16.539Z,5.10
2019-02-08T22:20:45.707Z,4.20
2019-02-08T22:23:14.834Z,4.07
2019-02-08T22:25:43.993Z,4.60
2019-02-08T22:28:13.174Z,5.00
2019-02-08T22:30:42.586Z,4.63
2019-02-08T22:33:11.716Z,4.87
2019-02-08T22:35:41.031Z,5.57
2019-02-08T22:38:10.335Z,4.50
2019-02-08T22:40:39.560Z,4.20
2019-02-08T22:43:08.730Z,4.20
2019-02-08T22:45:38.737Z,4.53
2019-02-08T22:48:08.217Z,4.73
2019-02-08T22:50:37.399Z,4.30
2019-02-08T22:53:07.336Z,4.13
2019-02-08T22:55:36.455Z,4.40
2019-02-08T22:58:06.006Z,4.17
2019-02-08T23:01:03.844Z,4.90
2019-02-08T23:03:33.324Z,4.40
2019-02-08T23:06:02.360Z,4.83
2019-02-08T23:08:31.408Z,4.27
2019-02-08T23:11:03.555Z,4.23
2019-02-08T23:13:32.564Z,4.30
2019-02-08T23:16:01.546Z,4.07
2019-02-08T23:18:30.590Z,4.20
2019-02-08T23:20:59.626Z,4.33
2019-02-08T23:23:28.610Z,4.33
2019-02-08T23:25:57.604Z,4.33
2019-02-08T23:28:26.605Z,4.30
2019-02-08T23:30:55.763Z,4.47
2019-02-08T23:33:24.776Z,4.37
2019-02-08T23:35:53.738Z,6.33
2019-02-08T23:38:22.753Z,3.80
2019-02-08T23:40:51.795Z,4.73
2019-02-08T23:43:20.812Z,3.57
2019-02-08T23:45:49.813Z,4.83
2019-02-08T23:48:18.762Z,3.77
2019-02-08T23:50:48.765Z,3.90
2019-02-08T23:53:17.875Z,6.27
2019-02-08T23:55:46.866Z,3.90
2019-02-08T23:58:15.843Z,4.33
